Time;durP1;ratioP1;P1;durP2;ratioP2;P2;SDS_P1;SDS_P2;PMS_P1;PMS_P2;Temp;Humidity;BMP_temperature;BMP_pressure;BME280_temperature;BME280_humidity;BME280_pressure;Samples;Min_cycle;Max_cycle;Signal;HPM_P1;HPM_P2
2024/02/16 00:01:58;;;;;;;7.93;5.32;;;;;;;;;;5035402;28;20390;-80
2024/02/16 00:04:24;;;;;;;5.40;4.90;;;;;;;;;;5035255;28;20851;-80
2024/02/16 00:06:50;;;;;;;5.57;4.70;;;;;;;;;;5035152;28;20397;-80
2024/02/16 00:09:17;;;;;;;7.60;4.80;;;;;;;;;;5035197;28;20382;-80
2024/02/16 00:11:43;;;;;;;6.43;5.00;;;;;;;;;;5035335;28;20392;-79
2024/02/16 00:14:10;;;;;;;5.15;4.60;;;;;;;;;;5035400;28;20717;-79
2024/02/16 00:16:36;;;;;;;5.00;4.40;;;;;;;;;;5035276;28;20415;-79
2024/02/16 00:19:02;;;;;;;7.30;5.18;;;;;;;;;;5035355;28;20765;-79
2024/02/16 00:21:28;;;;;;;8.35;5.20;;;;;;;;;;5035479;28;20410;-79
2024/02/16 00:23:55;;;;;;;5.80;5.18;;;;;;;;;;5035684;28;20382;-79
2024/02/16 00:26:21;;;;;;;5.90;5.30;;;;;;;;;;5035061;28;20379;-79
2024/02/16 00:28:47;;;;;;;10.15;7.07;;;;;;;;;;5034855;28;20437;-81
2024/02/16 00:31:13;;;;;;;7.20;6.13;;;;;;;;;;5035083;28;20391;-79
2024/02/16 00:33:39;;;;;;;12.15;7.18;;;;;;;;;;5034768;28;20379;-79
2024/02/16 00:36:05;;;;;;;8.55;7.05;;;;;;;;;;5034356;28;20441;-79
2024/02/16 00:38:31;;;;;;;8.23;6.20;;;;;;;;;;5034513;28;20920;-79
2024/02/16 00:40:57;;;;;;;7.25;6.30;;;;;;;;;;5034553;28;20442;-79
2024/02/16 00:43:23;;;;;;;7.53;6.20;;;;;;;;;;5034160;28;20391;-79
2024/02/16 00:45:49;;;;;;;8.80;6.20;;;;;;;;;;5034437;28;20379;-79
2024/02/16 00:48:15;;;;;;;6.43;5.60;;;;;;;;;;5034093;28;20418;-79
2024/02/16 00:50:42;;;;;;;6.10;5.10;;;;;;;;;;5034847;28;20383;-79
2024/02/16 00:53:08;;;;;;;6.10;5.50;;;;;;;;;;5034312;28;20383;-79
2024/02/16 00:55:34;;;;;;;6.38;5.25;;;;;;;;;;5034563;28;20394;-79
2024/02/16 00:58:00;;;;;;;6.10;5.10;;;;;;;;;;5034606;28;20742;-79
2024/02/16 01:00:26;;;;;;;6.75;5.07;;;;;;;;;;5016817;28;20469;-79
2024/02/16 01:02:53;;;;;;;6.38;5.30;;;;;;;;;;5034588;28;20391;-79
2024/02/16 01:05:19;;;;;;;6.70;5.13;;;;;;;;;;5034377;28;20951;-79
2024/02/16 01:07:45;;;;;;;8.23;5.03;;;;;;;;;;5034430;28;20466;-79
2024/02/16 01:10:14;;;;;;;6.53;5.32;;;;;;;;;;5016593;28;20423;-80
2024/02/16 01:12:40;;;;;;;6.47;4.82;;;;;;;;;;5033640;28;20407;-80
2024/02/16 01:15:06;;;;;;;5.43;4.53;;;;;;;;;;5034460;28;20817;-79
2024/02/16 01:17:33;;;;;;;6.28;4.95;;;;;;;;;;5033833;28;20388;-79
2024/02/16 01:19:59;;;;;;;6.40;4.70;;;;;;;;;;5033560;28;20787;-80
2024/02/16 01:22:25;;;;;;;5.97;4.80;;;;;;;;;;5034887;28;20716;-80
2024/02/16 01:24:51;;;;;;;4.85;4.25;;;;;;;;;;5033763;28;20475;-79
2024/02/16 01:27:17;;;;;;;5.50;4.43;;;;;;;;;;5034170;28;20730;-79
2024/02/16 01:29:43;;;;;;;5.05;4.55;;;;;;;;;;5034248;28;20386;-79
2024/02/16 01:32:09;;;;;;;5.37;4.43;;;;;;;;;;5034070;28;20383;-79
2024/02/16 01:34:35;;;;;;;8.30;4.82;;;;;;;;;;5015806;28;20406;-79
2024/02/16 01:37:01;;;;;;;8.60;6.18;;;;;;;;;;5034061;28;20433;-79
2024/02/16 01:39:27;;;;;;;9.88;6.32;;;;;;;;;;5034164;28;20399;-79
2024/02/16 01:41:53;;;;;;;6.88;5.40;;;;;;;;;;5033602;28;20411;-79
2024/02/16 01:44:19;;;;;;;6.80;5.07;;;;;;;;;;5034491;28;20472;-79
2024/02/16 01:46:45;;;;;;;7.00;5.97;;;;;;;;;;5033665;28;20390;-79
2024/02/16 01:49:14;;;;;;;9.65;7.10;;;;;;;;;;5033903;28;20420;-79
2024/02/16 01:51:40;;;;;;;9.40;7.07;;;;;;;;;;5034044;28;20398;-79
2024/02/16 01:54:07;;;;;;;11.48;7.32;;;;;;;;;;5034278;28;20390;-80
2024/02/16 01:56:33;;;;;;;7.25;6.03;;;;;;;;;;5036520;28;20490;-79
2024/02/16 01:58:59;;;;;;;8.05;5.72;;;;;;;;;;5037243;28;20394;-79
2024/02/16 02:01:25;;;;;;;9.57;6.38;;;;;;;;;;5037369;28;20460;-79
2024/02/16 02:03:51;;;;;;;8.55;6.18;;;;;;;;;;5037167;28;20873;-79
2024/02/16 02:06:17;;;;;;;7.05;5.65;;;;;;;;;;5037943;28;20473;-79
2024/02/16 02:08:43;;;;;;;7.50;5.82;;;;;;;;;;5036990;28;20377;-79
2024/02/16 02:11:09;;;;;;;6.18;5.32;;;;;;;;;;5037397;28;20438;-79
2024/02/16 02:13:36;;;;;;;19.52;11.10;;;;;;;;;;5037075;28;20741;-79
2024/02/16 02:16:03;;;;;;;23.93;12.73;;;;;;;;;;5036569;28;20395;-79
2024/02/16 02:18:29;;;;;;;19.40;12.00;;;;;;;;;;5036798;28;20376;-79
2024/02/16 02:20:55;;;;;;;33.42;14.93;;;;;;;;;;5036395;28;20435;-79
2024/02/16 02:23:21;;;;;;;15.10;9.75;;;;;;;;;;5037059;28;20390;-79
2024/02/16 02:25:48;;;;;;;9.57;6.90;;;;;;;;;;5035952;28;20476;-81
2024/02/16 02:28:15;;;;;;;10.55;7.18;;;;;;;;;;5036587;28;20398;-81
2024/02/16 02:30:42;;;;;;;8.45;6.80;;;;;;;;;;5036338;28;20384;-81
2024/02/16 02:33:11;;;;;;;6.60;5.93;;;;;;;;;;5036351;28;20383;-80
2024/02/16 02:35:37;;;;;;;7.88;6.50;;;;;;;;;;5036928;28;20406;-80
2024/02/16 02:38:03;;;;;;;8.95;6.75;;;;;;;;;;5036537;28;20437;-81
2024/02/16 02:40:29;;;;;;;10.52;7.40;;;;;;;;;;5036402;28;20447;-80
2024/02/16 02:42:55;;;;;;;8.93;6.40;;;;;;;;;;5036899;28;20371;-80
2024/02/16 02:45:21;;;;;;;8.80;6.10;;;;;;;;;;5035975;28;20425;-80
2024/02/16 02:47:47;;;;;;;12.05;6.00;;;;;;;;;;5036103;28;20854;-80
2024/02/16 02:50:13;;;;;;;8.10;6.15;;;;;;;;;;5035933;28;20432;-80
2024/02/16 02:52:39;;;;;;;5.73;5.10;;;;;;;;;;5036324;28;20383;-80
2024/02/16 02:55:05;;;;;;;7.00;4.93;;;;;;;;;;5035943;28;20387;-81
2024/02/16 02:57:31;;;;;;;6.43;3.88;;;;;;;;;;5036097;28;20742;-81
2024/02/16 03:00:10;;;;;;;4.63;4.18;;;;;;;;;;5035148;28;20407;-80
2024/02/16 03:02:37;;;;;;;4.93;4.30;;;;;;;;;;5035678;28;20779;-81
2024/02/16 03:05:03;;;;;;;4.90;4.28;;;;;;;;;;5035535;28;20407;-81
2024/02/16 03:07:31;;;;;;;5.82;4.55;;;;;;;;;;5034611;28;20445;-80
2024/02/16 03:09:57;;;;;;;5.95;4.00;;;;;;;;;;5035714;28;20379;-80
2024/02/16 03:12:23;;;;;;;4.53;3.35;;;;;;;;;;5018058;28;20391;-81
2024/02/16 03:14:49;;;;;;;4.65;4.25;;;;;;;;;;5035601;28;20745;-80
2024/02/16 03:17:15;;;;;;;4.63;3.50;;;;;;;;;;5036077;28;20470;-80
2024/02/16 03:19:41;;;;;;;4.32;3.50;;;;;;;;;;5035817;28;20383;-80
2024/02/16 03:22:07;;;;;;;4.55;3.60;;;;;;;;;;5035840;28;20394;-80
2024/02/16 03:24:33;;;;;;;4.13;3.70;;;;;;;;;;5035597;28;20460;-81
2024/02/16 03:27:00;;;;;;;3.90;3.33;;;;;;;;;;5035891;28;20410;-80
2024/02/16 03:29:26;;;;;;;11.85;8.13;;;;;;;;;;5035402;28;20402;-80
2024/02/16 03:31:52;;;;;;;5.97;3.80;;;;;;;;;;5017627;28;20473;-80
2024/02/16 03:34:18;;;;;;;11.00;6.60;;;;;;;;;;5034712;28;20387;-81
2024/02/16 03:36:44;;;;;;;9.17;6.20;;;;;;;;;;5035324;28;20383;-81
2024/02/16 03:39:10;;;;;;;26.80;13.30;;;;;;;;;;5034482;28;20386;-80
2024/02/16 03:41:36;;;;;;;31.65;15.32;;;;;;;;;;5034385;28;20407;-80
2024/02/16 03:44:02;;;;;;;34.43;16.70;;;;;;;;;;5035137;28;20391;-81
2024/02/16 03:46:28;;;;;;;26.23;14.13;;;;;;;;;;5035041;28;20379;-80
2024/02/16 03:48:54;;;;;;;22.42;11.23;;;;;;;;;;5034708;28;20409;-81
2024/02/16 03:51:20;;;;;;;17.40;10.20;;;;;;;;;;5034625;28;20808;-80
2024/02/16 03:53:46;;;;;;;10.43;7.20;;;;;;;;;;5034500;28;20418;-80
2024/02/16 03:56:12;;;;;;;4.78;3.85;;;;;;;;;;5026388;28;20837;-80
2024/02/16 03:58:39;;;;;;;11.70;7.60;;;;;;;;;;5035004;28;20421;-81
2024/02/16 04:01:08;;;;;;;4.18;3.78;;;;;;;;;;5035150;28;20461;-81
2024/02/16 04:03:34;;;;;;;4.90;3.90;;;;;;;;;;5035175;28;20706;-81
2024/02/16 04:06:01;;;;;;;4.25;3.35;;;;;;;;;;5035027;28;20395;-80
2024/02/16 04:08:27;;;;;;;5.60;5.00;;;;;;;;;;5034435;28;20398;-80
2024/02/16 04:10:53;;;;;;;5.03;4.50;;;;;;;;;;5034240;28;20518;-80
2024/02/16 04:13:19;;;;;;;5.10;4.05;;;;;;;;;;5017156;28;20419;-81
2024/02/16 04:15:45;;;;;;;5.57;3.90;;;;;;;;;;5034514;28;20394;-80
2024/02/16 04:18:11;;;;;;;5.57;4.22;;;;;;;;;;5033823;28;20711;-80
2024/02/16 04:20:37;;;;;;;4.93;3.70;;;;;;;;;;5034620;28;20537;-80
2024/02/16 04:23:04;;;;;;;5.82;3.60;;;;;;;;;;5034459;28;20433;-80
2024/02/16 04:25:29;;;;;;;5.57;4.03;;;;;;;;;;5034464;28;20382;-80
2024/02/16 04:27:56;;;;;;;5.97;3.90;;;;;;;;;;5033980;28;20414;-81
2024/02/16 04:30:21;;;;;;;5.32;4.10;;;;;;;;;;5034408;28;20379;-80
2024/02/16 04:32:48;;;;;;;5.28;4.00;;;;;;;;;;5033781;28;20432;-80
2024/02/16 04:35:15;;;;;;;4.68;3.70;;;;;;;;;;5034091;28;20738;-80
2024/02/16 04:37:41;;;;;;;4.47;3.60;;;;;;;;;;5033880;28;20379;-80
2024/02/16 04:40:08;;;;;;;6.20;4.00;;;;;;;;;;5033758;28;20450;-80
2024/02/16 04:42:34;;;;;;;4.22;3.50;;;;;;;;;;5034387;28;20383;-80
2024/02/16 04:45:00;;;;;;;4.03;3.50;;;;;;;;;;5033862;28;20375;-80
2024/02/16 04:47:26;;;;;;;5.50;3.33;;;;;;;;;;5033937;28;20386;-80
2024/02/16 04:49:53;;;;;;;4.38;3.30;;;;;;;;;;5033404;28;20465;-80
2024/02/16 04:52:19;;;;;;;4.00;3.53;;;;;;;;;;5034017;28;20466;-81
2024/02/16 04:54:45;;;;;;;4.68;3.50;;;;;;;;;;5033746;28;20413;-80
2024/02/16 04:57:11;;;;;;;4.18;3.20;;;;;;;;;;5033616;28;20425;-80
2024/02/16 04:59:37;;;;;;;3.22;2.90;;;;;;;;;;5033688;28;20379;-80
2024/02/16 05:02:03;;;;;;;4.97;3.45;;;;;;;;;;5033587;28;20383;-80
2024/02/16 05:04:29;;;;;;;4.10;3.72;;;;;;;;;;5034349;28;20435;-81
2024/02/16 05:06:57;;;;;;;4.20;3.63;;;;;;;;;;5033428;28;20880;-80
2024/02/16 05:09:24;;;;;;;5.68;3.72;;;;;;;;;;5033822;28;20473;-80
2024/02/16 05:11:51;;;;;;;3.80;3.38;;;;;;;;;;5033894;28;20395;-80
2024/02/16 05:14:17;;;;;;;5.53;3.90;;;;;;;;;;5033424;28;20395;-80
2024/02/16 05:16:47;;;;;;;6.90;4.07;;;;;;;;;;5032973;28;20383;-80
2024/02/16 05:19:13;;;;;;;6.47;3.55;;;;;;;;;;5033779;28;20394;-81
2024/02/16 05:21:39;;;;;;;4.40;3.42;;;;;;;;;;5033524;28;20399;-80
2024/02/16 05:24:05;;;;;;;3.65;3.33;;;;;;;;;;5033904;28;20386;-80
2024/02/16 05:26:31;;;;;;;4.00;3.33;;;;;;;;;;5033732;28;20914;-80
2024/02/16 05:28:57;;;;;;;4.65;3.42;;;;;;;;;;5034036;28;20380;-80
2024/02/16 05:31:23;;;;;;;3.63;3.23;;;;;;;;;;5037488;28;20410;-80
2024/02/16 05:33:50;;;;;;;4.22;3.22;;;;;;;;;;5036949;28;20856;-81
2024/02/16 05:36:20;;;;;;;9.27;4.20;;;;;;;;;;5036744;28;20391;-80
2024/02/16 05:38:49;;;;;;;5.03;3.60;;;;;;;;;;5037113;28;20471;-80
2024/02/16 05:41:18;;;;;;;6.63;4.18;;;;;;;;;;5036811;28;20913;-80
2024/02/16 05:43:44;;;;;;;9.00;5.72;;;;;;;;;;5036879;28;20383;-80
2024/02/16 05:46:17;;;;;;;7.82;4.70;;;;;;;;;;5036918;28;20466;-80
2024/02/16 05:48:44;;;;;;;7.57;5.13;;;;;;;;;;5036653;28;20391;-80
2024/02/16 05:51:12;;;;;;;7.15;5.20;;;;;;;;;;5037363;28;20394;-80
2024/02/16 05:53:39;;;;;;;10.18;5.35;;;;;;;;;;5037054;28;20387;-80
2024/02/16 05:56:05;;;;;;;9.60;5.75;;;;;;;;;;5037057;28;20379;-80
2024/02/16 05:58:33;;;;;;;7.60;5.53;;;;;;;;;;5036987;28;20410;-80
2024/02/16 06:00:59;;;;;;;5.95;5.07;;;;;;;;;;5037149;28;21297;-81
2024/02/16 06:03:26;;;;;;;6.80;5.28;;;;;;;;;;5036651;28;20415;-80
2024/02/16 06:05:53;;;;;;;5.43;4.93;;;;;;;;;;5037047;28;20454;-80
2024/02/16 06:08:19;;;;;;;7.22;5.40;;;;;;;;;;5036411;28;20376;-80
2024/02/16 06:10:51;;;;;;;5.43;4.93;;;;;;;;;;5019026;28;20399;-80
2024/02/16 06:13:17;;;;;;;6.22;5.25;;;;;;;;;;5036708;28;20737;-80
2024/02/16 06:15:43;;;;;;;5.05;4.55;;;;;;;;;;5036206;28;20415;-80
2024/02/16 06:18:09;;;;;;;5.82;4.68;;;;;;;;;;5036236;28;20419;-80
2024/02/16 06:20:35;;;;;;;6.18;4.60;;;;;;;;;;5036506;28;20410;-80
2024/02/16 06:23:01;;;;;;;5.47;4.30;;;;;;;;;;5036430;28;20876;-80
2024/02/16 06:25:27;;;;;;;5.22;4.22;;;;;;;;;;5036990;28;20859;-80
2024/02/16 06:27:53;;;;;;;5.30;4.13;;;;;;;;;;5036323;28;20398;-80
2024/02/16 06:30:19;;;;;;;6.90;4.85;;;;;;;;;;5036490;28;20387;-80
2024/02/16 06:32:45;;;;;;;5.33;4.37;;;;;;;;;;5036925;28;20394;-80
2024/02/16 06:35:12;;;;;;;5.38;4.07;;;;;;;;;;5036823;28;20446;-80
2024/02/16 06:37:38;;;;;;;5.18;4.03;;;;;;;;;;5036399;28;20749;-80
2024/02/16 06:40:05;;;;;;;4.45;3.95;;;;;;;;;;5036109;28;20877;-80
2024/02/16 06:42:33;;;;;;;4.90;4.18;;;;;;;;;;5036296;28;20398;-80
2024/02/16 06:45:00;;;;;;;4.30;3.90;;;;;;;;;;5036757;28;20418;-80
2024/02/16 06:47:26;;;;;;;5.20;4.70;;;;;;;;;;5036232;28;20757;-80
2024/02/16 06:49:52;;;;;;;5.28;4.40;;;;;;;;;;5036045;28;20433;-80
2024/02/16 06:52:18;;;;;;;6.63;4.20;;;;;;;;;;5036175;28;20379;-80
2024/02/16 06:54:44;;;;;;;4.75;4.18;;;;;;;;;;5035931;28;20431;-80
2024/02/16 06:57:10;;;;;;;5.77;4.50;;;;;;;;;;5036811;28;20387;-81
2024/02/16 06:59:36;;;;;;;4.40;3.92;;;;;;;;;;5035989;28;20414;-80
2024/02/16 07:02:02;;;;;;;3.92;3.60;;;;;;;;;;5035810;28;21144;-80
2024/02/16 07:04:28;;;;;;;4.80;4.30;;;;;;;;;;5036211;28;20411;-80
2024/02/16 07:06:54;;;;;;;4.32;3.92;;;;;;;;;;5035523;28;20383;-80
2024/02/16 07:09:22;;;;;;;4.93;3.80;;;;;;;;;;5035716;28;20447;-80
2024/02/16 07:11:50;;;;;;;5.28;3.90;;;;;;;;;;5035845;28;20387;-80
2024/02/16 07:14:16;;;;;;;4.95;4.07;;;;;;;;;;5036236;28;20864;-81
2024/02/16 07:16:42;;;;;;;7.00;5.05;;;;;;;;;;5036373;28;20916;-80
2024/02/16 07:19:08;;;;;;;7.03;5.25;;;;;;;;;;5035986;28;20383;-80
2024/02/16 07:21:35;;;;;;;4.97;3.90;;;;;;;;;;5036258;28;20406;-80
2024/02/16 07:24:01;;;;;;;4.35;3.95;;;;;;;;;;5035894;28;20379;-80
2024/02/16 07:26:29;;;;;;;6.38;4.18;;;;;;;;;;5035102;28;20414;-81
2024/02/16 07:28:55;;;;;;;5.05;4.20;;;;;;;;;;5035642;28;21038;-81
2024/02/16 07:31:21;;;;;;;5.80;4.00;;;;;;;;;;5035256;28;20390;-80
2024/02/16 07:33:47;;;;;;;5.07;3.97;;;;;;;;;;5034918;28;20854;-79
2024/02/16 07:36:14;;;;;;;5.28;3.58;;;;;;;;;;5036043;28;20395;-80
2024/02/16 07:38:40;;;;;;;4.10;3.53;;;;;;;;;;5036092;28;20383;-79
2024/02/16 07:41:07;;;;;;;3.90;3.60;;;;;;;;;;5035871;28;20415;-79
2024/02/16 07:43:33;;;;;;;3.60;3.28;;;;;;;;;;5035310;28;20868;-80
2024/02/16 07:45:59;;;;;;;3.70;3.35;;;;;;;;;;5035548;28;20383;-80
2024/02/16 07:48:25;;;;;;;4.43;3.78;;;;;;;;;;5035784;28;20371;-79
2024/02/16 07:50:51;;;;;;;5.50;4.90;;;;;;;;;;5035509;28;20486;-80
2024/02/16 07:53:17;;;;;;;5.38;4.32;;;;;;;;;;5036193;28;20413;-79
2024/02/16 07:55:43;;;;;;;5.10;4.32;;;;;;;;;;5036357;28;21102;-79
2024/02/16 07:58:09;;;;;;;4.38;3.97;;;;;;;;;;5035559;28;20387;-79
2024/02/16 08:00:35;;;;;;;4.38;4.00;;;;;;;;;;5035198;28;20738;-79
2024/02/16 08:03:02;;;;;;;4.43;4.03;;;;;;;;;;5034966;28;20384;-79
2024/02/16 08:05:28;;;;;;;4.15;3.75;;;;;;;;;;5035636;28;20410;-80
2024/02/16 08:07:55;;;;;;;4.38;3.67;;;;;;;;;;5034755;28;20372;-80
2024/02/16 08:10:21;;;;;;;4.60;4.15;;;;;;;;;;5035275;28;20470;-79
2024/02/16 08:12:47;;;;;;;4.70;4.30;;;;;;;;;;5035266;28;20469;-79
2024/02/16 08:15:13;;;;;;;6.22;5.13;;;;;;;;;;5035479;28;20880;-80
2024/02/16 08:17:40;;;;;;;5.43;4.93;;;;;;;;;;5035272;28;20387;-80
2024/02/16 08:20:06;;;;;;;5.80;5.20;;;;;;;;;;5035002;28;20911;-80
2024/02/16 08:22:34;;;;;;;5.70;5.20;;;;;;;;;;5035145;28;20383;-80
2024/02/16 08:25:00;;;;;;;6.60;6.00;;;;;;;;;;5035106;28;20387;-79
2024/02/16 08:27:26;;;;;;;6.53;5.90;;;;;;;;;;5035482;28;20379;-79
2024/02/16 08:29:52;;;;;;;6.32;5.70;;;;;;;;;;5035193;28;20391;-80
2024/02/16 08:32:20;;;;;;;6.57;5.70;;;;;;;;;;5035675;28;20379;-79
2024/02/16 08:34:48;;;;;;;7.72;7.03;;;;;;;;;;5035094;28;20379;-80
2024/02/16 08:37:14;;;;;;;7.07;6.47;;;;;;;;;;5034711;28;20410;-80
2024/02/16 08:39:41;;;;;;;8.05;7.25;;;;;;;;;;5035157;28;20407;-80
2024/02/16 08:42:08;;;;;;;7.20;6.35;;;;;;;;;;5034504;28;20378;-79
2024/02/16 08:44:34;;;;;;;7.47;6.78;;;;;;;;;;5034942;28;20454;-79
2024/02/16 08:47:00;;;;;;;8.07;7.28;;;;;;;;;;5034885;28;20419;-79
2024/02/16 08:49:26;;;;;;;8.15;6.63;;;;;;;;;;5035214;28;20390;-80
2024/02/16 08:51:53;;;;;;;7.70;6.90;;;;;;;;;;5034781;28;20441;-79
2024/02/16 08:54:19;;;;;;;7.53;6.82;;;;;;;;;;5034694;28;20481;-79
2024/02/16 08:56:48;;;;;;;8.25;7.53;;;;;;;;;;5034314;28;20390;-80
2024/02/16 08:59:14;;;;;;;11.23;10.13;;;;;;;;;;5034489;28;20383;-79
2024/02/16 09:01:40;;;;;;;8.95;8.07;;;;;;;;;;5034105;28;20403;-80
2024/02/16 09:04:06;;;;;;;12.90;9.35;;;;;;;;;;5034929;28;20777;-80
2024/02/16 09:06:34;;;;;;;18.40;14.65;;;;;;;;;;5039066;28;20383;-80
2024/02/16 09:09:00;;;;;;;10.95;9.73;;;;;;;;;;5038734;28;20457;-80
2024/02/16 09:11:27;;;;;;;13.93;9.00;;;;;;;;;;5038801;28;20395;-80
2024/02/16 09:13:53;;;;;;;10.00;8.77;;;;;;;;;;5039410;28;20379;-79
2024/02/16 09:16:20;;;;;;;9.52;8.48;;;;;;;;;;5039236;28;20428;-80
2024/02/16 09:18:48;;;;;;;10.95;9.88;;;;;;;;;;5039651;28;20383;-80
2024/02/16 09:21:14;;;;;;;10.73;9.02;;;;;;;;;;5038876;28;20403;-80
2024/02/16 09:23:40;;;;;;;15.52;10.77;;;;;;;;;;5038597;28;20806;-79
2024/02/16 09:26:09;;;;;;;14.27;10.07;;;;;;;;;;5039026;28;20375;-80
2024/02/16 09:28:39;;;;;;;11.00;10.00;;;;;;;;;;5039264;28;20710;-80
2024/02/16 09:31:05;;;;;;;13.98;10.60;;;;;;;;;;5020966;28;20410;-80
2024/02/16 09:33:31;;;;;;;14.40;10.40;;;;;;;;;;5038064;28;20395;-80
2024/02/16 09:35:57;;;;;;;11.57;10.38;;;;;;;;;;5038491;28;20387;-80
2024/02/16 09:38:23;;;;;;;13.05;10.43;;;;;;;;;;5038759;28;20390;-80
2024/02/16 09:40:51;;;;;;;11.60;10.45;;;;;;;;;;5038912;28;20407;-80
2024/02/16 09:43:27;;;;;;;12.27;10.43;;;;;;;;;;5038928;28;20497;-80
2024/02/16 09:45:54;;;;;;;11.75;10.45;;;;;;;;;;5038737;28;20983;-80
2024/02/16 09:48:20;;;;;;;12.93;10.00;;;;;;;;;;5038344;28;20387;-80
2024/02/16 09:50:46;;;;;;;16.70;11.00;;;;;;;;;;5037990;28;20505;-80
2024/02/16 09:53:13;;;;;;;15.20;9.60;;;;;;;;;;5038346;28;20383;-80
2024/02/16 09:55:39;;;;;;;9.30;8.38;;;;;;;;;;5037995;28;20394;-80
2024/02/16 09:58:05;;;;;;;9.80;8.57;;;;;;;;;;5037878;28;20405;-80
2024/02/16 10:00:31;;;;;;;12.73;9.52;;;;;;;;;;5038902;28;20438;-80
2024/02/16 10:02:57;;;;;;;14.03;10.00;;;;;;;;;;5038163;28;20422;-79
2024/02/16 10:05:23;;;;;;;10.35;9.25;;;;;;;;;;5038023;28;20789;-80
2024/02/16 10:07:49;;;;;;;15.60;9.88;;;;;;;;;;5038031;28;20454;-80
2024/02/16 10:10:30;;;;;;;11.48;9.27;;;;;;;;;;5038152;28;20386;-80
2024/02/16 10:13:04;;;;;;;9.03;8.00;;;;;;;;;;5037895;28;20462;-80
2024/02/16 10:15:30;;;;;;;9.02;8.13;;;;;;;;;;5036836;28;20383;-81
2024/02/16 10:18:02;;;;;;;9.23;7.65;;;;;;;;;;5037838;28;20518;-79
2024/02/16 10:20:29;;;;;;;7.97;6.97;;;;;;;;;;5037764;28;20406;-80
2024/02/16 10:23:05;;;;;;;9.30;7.57;;;;;;;;;;5037109;28;20411;-80
2024/02/16 10:25:31;;;;;;;7.40;6.70;;;;;;;;;;5037874;28;20429;-80
2024/02/16 10:28:01;;;;;;;8.02;7.25;;;;;;;;;;5037530;28;20846;-80
2024/02/16 10:30:30;;;;;;;7.80;7.00;;;;;;;;;;5020156;28;20826;-79
2024/02/16 10:32:56;;;;;;;7.20;6.50;;;;;;;;;;5037372;28;20383;-80
2024/02/16 10:35:24;;;;;;;7.70;6.57;;;;;;;;;;5037687;28;20418;-80
2024/02/16 10:37:50;;;;;;;8.65;6.57;;;;;;;;;;5037110;28;20414;-80
2024/02/16 10:40:18;;;;;;;7.00;6.30;;;;;;;;;;5037521;28;20407;-80
2024/02/16 10:42:46;;;;;;;6.28;5.47;;;;;;;;;;5036531;28;20375;-79
2024/02/16 10:45:15;;;;;;;8.65;5.68;;;;;;;;;;5036628;28;20414;-79
2024/02/16 10:47:41;;;;;;;6.07;5.55;;;;;;;;;;5037225;28;20380;-80
2024/02/16 10:50:09;;;;;;;7.05;5.40;;;;;;;;;;5037089;28;20405;-80
2024/02/16 10:52:36;;;;;;;6.35;5.72;;;;;;;;;;5036907;28;20391;-80
2024/02/16 10:55:03;;;;;;;5.60;5.10;;;;;;;;;;5037127;28;20384;-80
2024/02/16 10:57:29;;;;;;;7.07;5.28;;;;;;;;;;5037296;28;20394;-80
2024/02/16 10:59:56;;;;;;;5.88;5.32;;;;;;;;;;5036879;28;20379;-80
2024/02/16 11:02:23;;;;;;;6.40;5.67;;;;;;;;;;5037737;28;20462;-80
2024/02/16 11:04:49;;;;;;;6.57;5.88;;;;;;;;;;5037913;28;20403;-81
2024/02/16 11:07:16;;;;;;;7.18;5.50;;;;;;;;;;5036339;28;20383;-80
2024/02/16 11:09:43;;;;;;;6.03;5.30;;;;;;;;;;5036652;28;20379;-80
2024/02/16 11:12:12;;;;;;;6.18;5.57;;;;;;;;;;5036995;28;20391;-80
2024/02/16 11:14:41;;;;;;;6.00;5.40;;;;;;;;;;5019684;28;20383;-81
2024/02/16 11:17:12;;;;;;;8.75;5.80;;;;;;;;;;5037325;28;20383;-80
2024/02/16 11:19:40;;;;;;;6.05;5.50;;;;;;;;;;5036869;28;20386;-80
2024/02/16 11:22:11;;;;;;;5.43;4.93;;;;;;;;;;5036755;28;20434;-80
2024/02/16 11:24:37;;;;;;;7.88;5.70;;;;;;;;;;5035766;28;20376;-80
2024/02/16 11:27:03;;;;;;;5.88;5.03;;;;;;;;;;5018963;28;20714;-80
2024/02/16 11:29:34;;;;;;;5.90;5.05;;;;;;;;;;5037465;28;20386;-80
2024/02/16 11:32:00;;;;;;;5.63;5.03;;;;;;;;;;5036929;28;20745;-80
2024/02/16 11:34:27;;;;;;;7.05;5.07;;;;;;;;;;5036775;28;20383;-80
2024/02/16 11:36:54;;;;;;;7.82;5.00;;;;;;;;;;5036447;28;20387;-80
2024/02/16 11:39:20;;;;;;;6.97;4.82;;;;;;;;;;5036852;28;20776;-81
2024/02/16 11:41:46;;;;;;;5.10;4.60;;;;;;;;;;5036656;28;20453;-80
2024/02/16 11:44:16;;;;;;;5.65;4.82;;;;;;;;;;5036279;28;20379;-80
2024/02/16 11:46:42;;;;;;;5.78;4.88;;;;;;;;;;5035902;28;20464;-80
2024/02/16 11:49:08;;;;;;;5.40;4.72;;;;;;;;;;5035963;28;20386;-80
2024/02/16 11:51:35;;;;;;;6.57;4.72;;;;;;;;;;5036125;28;20386;-80
2024/02/16 11:54:01;;;;;;;6.15;4.53;;;;;;;;;;5036196;28;20395;-81
2024/02/16 11:56:27;;;;;;;5.30;4.80;;;;;;;;;;5036521;28;20426;-80
2024/02/16 11:58:53;;;;;;;6.60;4.55;;;;;;;;;;5036218;28;20940;-80
2024/02/16 12:01:21;;;;;;;7.60;5.10;;;;;;;;;;5036325;28;20407;-81
2024/02/16 12:03:47;;;;;;;4.88;4.47;;;;;;;;;;5036103;28;20486;-81
2024/02/16 12:06:21;;;;;;;4.78;4.38;;;;;;;;;;5036343;28;20464;-80
2024/02/16 12:08:47;;;;;;;5.30;4.50;;;;;;;;;;5035797;28;20383;-80
2024/02/16 12:11:14;;;;;;;4.57;3.90;;;;;;;;;;5036301;28;20387;-80
2024/02/16 12:13:40;;;;;;;7.40;5.70;;;;;;;;;;5036743;28;20477;-80
2024/02/16 12:16:09;;;;;;;4.53;3.75;;;;;;;;;;5035949;28;20386;-80
2024/02/16 12:18:35;;;;;;;3.85;3.40;;;;;;;;;;5036434;28;20733;-80
2024/02/16 12:21:11;;;;;;;8.10;5.93;;;;;;;;;;5036017;28;20411;-80
2024/02/16 12:23:37;;;;;;;5.55;4.25;;;;;;;;;;5035792;28;20794;-80
2024/02/16 12:26:04;;;;;;;4.25;3.33;;;;;;;;;;5036087;28;20386;-80
2024/02/16 12:28:34;;;;;;;4.30;3.63;;;;;;;;;;5035622;28;20391;-80
2024/02/16 12:31:01;;;;;;;4.57;3.20;;;;;;;;;;5035820;28;20386;-81
2024/02/16 12:33:27;;;;;;;5.30;3.65;;;;;;;;;;5035380;28;20383;-81
2024/02/16 12:35:54;;;;;;;5.30;3.70;;;;;;;;;;5035370;28;20387;-81
2024/02/16 12:38:20;;;;;;;5.95;3.38;;;;;;;;;;5035026;28;20386;-81
2024/02/16 12:40:49;;;;;;;5.25;3.40;;;;;;;;;;5035630;28;20722;-82
2024/02/16 12:43:15;;;;;;;4.00;3.40;;;;;;;;;;5034762;28;20380;-81
2024/02/16 12:45:42;;;;;;;5.50;3.40;;;;;;;;;;5035256;28;20382;-80
2024/02/16 12:48:13;;;;;;;4.68;3.25;;;;;;;;;;5035204;28;20386;-80
2024/02/16 12:50:40;;;;;;;4.32;3.70;;;;;;;;;;5036070;28;20390;-80
2024/02/16 12:53:06;;;;;;;4.65;3.40;;;;;;;;;;5035642;28;20387;-80
2024/02/16 12:55:32;;;;;;;5.37;3.40;;;;;;;;;;5035193;28;20383;-80
2024/02/16 12:57:58;;;;;;;4.30;3.70;;;;;;;;;;5035457;28;20402;-81
2024/02/16 13:00:25;;;;;;;3.40;3.00;;;;;;;;;;5034957;28;20407;-80
2024/02/16 13:02:51;;;;;;;4.93;3.00;;;;;;;;;;5035471;28;20383;-80
2024/02/16 13:05:17;;;;;;;6.25;3.30;;;;;;;;;;5035021;28;20497;-80
2024/02/16 13:07:43;;;;;;;6.10;3.35;;;;;;;;;;5034792;28;20391;-80
2024/02/16 13:10:09;;;;;;;5.50;3.08;;;;;;;;;;5035185;28;20387;-80
2024/02/16 13:12:36;;;;;;;4.97;3.50;;;;;;;;;;5034656;28;20492;-82
2024/02/16 13:15:03;;;;;;;5.38;2.55;;;;;;;;;;5035288;28;20383;-80
2024/02/16 13:17:29;;;;;;;3.13;1.85;;;;;;;;;;5035194;28;20841;-81
2024/02/16 13:19:57;;;;;;;4.85;1.60;;;;;;;;;;5035116;28;20413;-81
2024/02/16 13:22:23;;;;;;;3.42;1.70;;;;;;;;;;5034845;28;20394;-80
2024/02/16 13:24:51;;;;;;;4.38;1.77;;;;;;;;;;5035122;28;20383;-80
2024/02/16 13:27:17;;;;;;;4.30;1.52;;;;;;;;;;5034883;28;20486;-81
2024/02/16 13:29:43;;;;;;;2.90;1.73;;;;;;;;;;5034558;28;20885;-81
2024/02/16 13:32:09;;;;;;;4.07;1.60;;;;;;;;;;5034277;28;20387;-81
2024/02/16 13:34:35;;;;;;;4.10;1.75;;;;;;;;;;5035189;28;20478;-80
2024/02/16 13:37:00;;;;;;;3.88;1.67;;;;;;;;;;5034864;28;20955;-80
2024/02/16 13:39:27;;;;;;;6.07;1.80;;;;;;;;;;5034516;28;20437;-81
2024/02/16 13:41:53;;;;;;;3.83;1.70;;;;;;;;;;5034868;28;20411;-80
2024/02/16 13:44:20;;;;;;;4.00;1.60;;;;;;;;;;5034951;28;20383;-80
2024/02/16 13:46:49;;;;;;;3.73;1.60;;;;;;;;;;5034064;28;20383;-80
2024/02/16 13:49:16;;;;;;;4.43;1.63;;;;;;;;;;5034936;28;20383;-80
2024/02/16 13:51:42;;;;;;;3.28;1.33;;;;;;;;;;5037685;28;20873;-80
2024/02/16 13:54:08;;;;;;;3.40;1.40;;;;;;;;;;5038782;28;20393;-80
2024/02/16 13:56:38;;;;;;;3.42;1.70;;;;;;;;;;5037838;28;20713;-80
2024/02/16 13:59:05;;;;;;;3.58;1.77;;;;;;;;;;5038142;28;20383;-80
2024/02/16 14:01:31;;;;;;;2.77;1.40;;;;;;;;;;5037839;28;20451;-80
2024/02/16 14:03:57;;;;;;;4.05;1.60;;;;;;;;;;5037797;28;20411;-81
2024/02/16 14:06:23;;;;;;;4.10;1.40;;;;;;;;;;5037922;28;20609;-81
2024/02/16 14:08:51;;;;;;;4.57;1.60;;;;;;;;;;5037578;28;20457;-80
2024/02/16 14:11:17;;;;;;;3.97;1.60;;;;;;;;;;5036795;28;20745;-80
2024/02/16 14:13:43;;;;;;;3.67;1.90;;;;;;;;;;5037577;28;20411;-80
2024/02/16 14:16:10;;;;;;;2.70;1.60;;;;;;;;;;5036932;28;20379;-80
2024/02/16 14:18:36;;;;;;;4.75;1.60;;;;;;;;;;5036651;28;20402;-80
2024/02/16 14:21:02;;;;;;;2.92;1.50;;;;;;;;;;5037405;28;20869;-82
2024/02/16 14:23:30;;;;;;;5.63;2.03;;;;;;;;;;5037274;28;20402;-81
2024/02/16 14:25:56;;;;;;;3.72;2.15;;;;;;;;;;5036706;28;20407;-81
2024/02/16 14:28:22;;;;;;;4.63;1.65;;;;;;;;;;5036893;28;20382;-81
2024/02/16 14:30:48;;;;;;;3.58;1.70;;;;;;;;;;5036815;28;20418;-81
2024/02/16 14:33:16;;;;;;;3.42;1.80;;;;;;;;;;5036710;28;20387;-81
2024/02/16 14:35:42;;;;;;;2.35;1.52;;;;;;;;;;5036606;28;20414;-81
2024/02/16 14:38:08;;;;;;;4.27;1.90;;;;;;;;;;5036271;28;20399;-81